sensor_id;sensor_type;location;lat;lon;timestamp;pressure;altitude;pressure_sealevel;temperature;humidity
74982;BME280;63532;50.766;18.944;2024-02-14T16:56:51;99127.16;;;3.17;79.42
74982;BME280;63532;50.766;18.944;2024-02-14T16:59:57;99125.25;;;3.19;79.52
74982;BME280;63532;50.766;18.944;2024-02-14T17:03:02;99129.59;;;3.20;79.73
74982;BME280;63532;50.766;18.944;2024-02-14T17:06:19;99127.06;;;3.19;79.70
74982;BME280;63532;50.766;18.944;2024-02-14T17:09:24;99123.44;;;3.20;79.48
74982;BME280;63532;50.766;18.944;2024-02-14T17:12:30;99132.16;;;3.22;79.55
74982;BME280;63532;50.766;18.944;2024-02-14T17:15:34;99127.69;;;3.22;79.56
74982;BME280;63532;50.766;18.944;2024-02-14T17:18:39;99135.28;;;3.27;79.99
74982;BME280;63532;50.766;18.944;2024-02-14T17:21:44;99137.72;;;3.30;79.56
74982;BME280;63532;50.766;18.944;2024-02-14T17:24:48;99136.66;;;3.32;79.80
74982;BME280;63532;50.766;18.944;2024-02-14T17:28:00;99137.41;;;3.34;79.69
74982;BME280;63532;50.766;18.944;2024-02-14T17:31:06;99137.31;;;3.36;79.33
74982;BME280;63532;50.766;18.944;2024-02-14T17:34:10;99139.75;;;3.39;79.98
74982;BME280;63532;50.766;18.944;2024-02-14T17:37:15;99137.72;;;3.42;79.87
74982;BME280;63532;50.766;18.944;2024-02-14T17:40:20;99127.22;;;3.41;79.78
74982;BME280;63532;50.766;18.944;2024-02-14T17:43:26;99130.50;;;3.44;79.71
74982;BME280;63532;50.766;18.944;2024-02-14T17:46:30;99128.13;;;3.53;79.37
74982;BME280;63532;50.766;18.944;2024-02-14T17:49:35;99126.41;;;3.52;79.45
74982;BME280;63532;50.766;18.944;2024-02-14T17:52:40;99133.41;;;3.65;79.98
74982;BME280;63532;50.766;18.944;2024-02-14T17:55:45;99135.91;;;3.91;79.78
74982;BME280;63532;50.766;18.944;2024-02-14T17:58:52;99125.69;;;3.97;79.36
74982;BME280;63532;50.766;18.944;2024-02-14T18:01:57;99124.50;;;4.01;79.45
74982;BME280;63532;50.766;18.944;2024-02-14T18:05:01;99132.75;;;4.09;79.39
74982;BME280;63532;50.766;18.944;2024-02-14T18:08:06;99129.13;;;4.10;79.50
74982;BME280;63532;50.766;18.944;2024-02-14T18:11:11;99130.13;;;4.21;79.48
74982;BME280;63532;50.766;18.944;2024-02-14T18:14:17;99135.34;;;4.33;79.40
74982;BME280;63532;50.766;18.944;2024-02-14T18:17:22;99129.50;;;4.52;79.51
74982;BME280;63532;50.766;18.944;2024-02-14T18:20:27;99124.28;;;4.62;79.16
74982;BME280;63532;50.766;18.944;2024-02-14T18:23:34;99126.13;;;4.72;79.04
74982;BME280;63532;50.766;18.944;2024-02-14T18:26:39;99127.94;;;4.83;79.09
74982;BME280;63532;50.766;18.944;2024-02-14T18:29:44;99126.16;;;4.95;78.82
74982;BME280;63532;50.766;18.944;2024-02-14T18:32:51;99131.56;;;5.04;78.37
74982;BME280;63532;50.766;18.944;2024-02-14T18:35:57;99137.50;;;5.08;78.74
74982;BME280;63532;50.766;18.944;2024-02-14T18:39:04;99130.50;;;5.07;78.71
74982;BME280;63532;50.766;18.944;2024-02-14T18:42:11;99137.50;;;5.08;78.56
74982;BME280;63532;50.766;18.944;2024-02-14T18:45:17;99137.50;;;5.08;78.93
74982;BME280;63532;50.766;18.944;2024-02-14T18:48:21;99140.91;;;5.10;79.17
74982;BME280;63532;50.766;18.944;2024-02-14T18:51:26;99131.94;;;5.11;78.83
74982;BME280;63532;50.766;18.944;2024-02-14T18:54:31;99143.09;;;5.16;78.75
74982;BME280;63532;50.766;18.944;2024-02-14T18:57:37;99135.69;;;5.20;78.57
74982;BME280;63532;50.766;18.944;2024-02-14T19:00:43;99139.66;;;5.25;78.85
74982;BME280;63532;50.766;18.944;2024-02-14T19:03:48;99142.22;;;5.27;78.62
74982;BME280;63532;50.766;18.944;2024-02-14T19:06:55;99143.91;;;5.28;78.63
74982;BME280;63532;50.766;18.944;2024-02-14T19:10:00;99147.41;;;5.28;78.28
74982;BME280;63532;50.766;18.944;2024-02-14T19:13:04;99151.53;;;5.32;78.82
74982;BME280;63532;50.766;18.944;2024-02-14T19:16:11;99148.63;;;5.35;78.71
74982;BME280;63532;50.766;18.944;2024-02-14T19:19:29;99152.03;;;5.37;78.63
74982;BME280;63532;50.766;18.944;2024-02-14T19:22:34;99147.44;;;5.39;78.32
74982;BME280;63532;50.766;18.944;2024-02-14T19:25:39;99151.91;;;5.39;78.70
74982;BME280;63532;50.766;18.944;2024-02-14T19:28:44;99155.41;;;5.39;78.74
74982;BME280;63532;50.766;18.944;2024-02-14T19:31:50;99153.00;;;5.36;78.68
74982;BME280;63532;50.766;18.944;2024-02-14T19:34:55;99154.06;;;5.34;78.67
74982;BME280;63532;50.766;18.944;2024-02-14T19:37:59;99154.31;;;5.31;78.94
74982;BME280;63532;50.766;18.944;2024-02-14T19:41:04;99151.78;;;5.29;78.76
74982;BME280;63532;50.766;18.944;2024-02-14T19:44:09;99151.78;;;5.29;78.93
74982;BME280;63532;50.766;18.944;2024-02-14T19:47:15;99158.31;;;5.25;78.93
74982;BME280;63532;50.766;18.944;2024-02-14T19:50:20;99145.22;;;5.22;79.15
74982;BME280;63532;50.766;18.944;2024-02-14T19:53:25;99147.44;;;5.17;78.96
74982;BME280;63532;50.766;18.944;2024-02-14T19:56:29;99153.00;;;5.14;79.17
74982;BME280;63532;50.766;18.944;2024-02-14T19:59:34;99140.66;;;5.13;79.47
74982;BME280;63532;50.766;18.944;2024-02-14T20:02:41;99135.94;;;5.16;79.27
74982;BME280;63532;50.766;18.944;2024-02-14T20:05:46;99138.47;;;5.18;79.48
74982;BME280;63532;50.766;18.944;2024-02-14T20:08:51;99134.25;;;5.15;79.26
74982;BME280;63532;50.766;18.944;2024-02-14T20:12:00;99144.38;;;5.22;79.50
74982;BME280;63532;50.766;18.944;2024-02-14T20:15:06;99143.41;;;5.23;79.34
74982;BME280;63532;50.766;18.944;2024-02-14T20:18:13;99137.25;;;5.22;79.33
74982;BME280;63532;50.766;18.944;2024-02-14T20:21:18;99136.78;;;5.28;79.50
74982;BME280;63532;50.766;18.944;2024-02-14T20:24:23;99132.16;;;5.30;79.27
74982;BME280;63532;50.766;18.944;2024-02-14T20:27:28;99132.41;;;5.27;79.25
74982;BME280;63532;50.766;18.944;2024-02-14T20:30:34;99136.03;;;5.26;79.49
74982;BME280;63532;50.766;18.944;2024-02-14T20:33:40;99134.34;;;5.25;79.68
74982;BME280;63532;50.766;18.944;2024-02-14T20:36:45;99130.72;;;5.26;79.68
74982;BME280;63532;50.766;18.944;2024-02-14T20:39:50;99145.72;;;5.27;79.51
74982;BME280;63532;50.766;18.944;2024-02-14T20:42:55;99144.88;;;5.27;79.93
74982;BME280;63532;50.766;18.944;2024-02-14T20:45:59;99143.06;;;5.27;79.40
74982;BME280;63532;50.766;18.944;2024-02-14T20:49:05;99133.88;;;5.31;79.61
74982;BME280;63532;50.766;18.944;2024-02-14T20:52:11;99137.50;;;5.30;79.72
74982;BME280;63532;50.766;18.944;2024-02-14T20:55:16;99135.56;;;5.32;79.77
74982;BME280;63532;50.766;18.944;2024-02-14T20:58:20;99138.22;;;5.32;79.74
74982;BME280;63532;50.766;18.944;2024-02-14T21:01:28;99129.38;;;5.32;79.58
74982;BME280;63532;50.766;18.944;2024-02-14T21:04:34;99133.75;;;5.33;79.85
74982;BME280;63532;50.766;18.944;2024-02-14T21:07:39;99129.25;;;5.33;79.77
74982;BME280;63532;50.766;18.944;2024-02-14T21:10:43;99133.63;;;5.34;80.00
74982;BME280;63532;50.766;18.944;2024-02-14T21:13:48;99129.25;;;5.33;79.63
74982;BME280;63532;50.766;18.944;2024-02-14T21:16:53;99121.28;;;5.33;79.72
74982;BME280;63532;50.766;18.944;2024-02-14T21:19:59;99129.25;;;5.33;79.70
74982;BME280;63532;50.766;18.944;2024-02-14T21:23:03;99134.72;;;5.32;80.01
